createdAt,value
2022-10-17T00:01:25.335Z,11.70
2022-10-17T00:03:51.794Z,9.63
2022-10-17T00:06:18.320Z,11.50
2022-10-17T00:08:45.152Z,10.70
2022-10-17T00:11:18.128Z,6.60
2022-10-17T00:13:45.786Z,10.40
2022-10-17T00:16:12.646Z,7.93
2022-10-17T00:18:39.069Z,6.97
2022-10-17T00:21:05.654Z,8.13
2022-10-17T00:23:33.689Z,8.07
2022-10-17T00:26:05.353Z,7.17
2022-10-17T00:28:32.327Z,6.27
2022-10-17T00:31:00.405Z,6.73
2022-10-17T00:33:27.842Z,7.03
2022-10-17T00:36:13.972Z,8.00
2022-10-17T00:38:44.926Z,5.90
2022-10-17T00:41:13.716Z,5.83
2022-10-17T00:44:23.388Z,9.37
2022-10-17T00:46:49.803Z,6.43
2022-10-17T00:49:16.198Z,8.97
2022-10-17T00:51:57.810Z,7.97
2022-10-17T00:54:27.446Z,5.00
2022-10-17T00:56:54.697Z,6.13
2022-10-17T00:59:22.134Z,6.87
2022-10-17T01:02:01.463Z,12.50
2022-10-17T01:04:28.071Z,5.40
2022-10-17T01:06:54.534Z,5.23
2022-10-17T01:09:21.078Z,7.90
2022-10-17T01:11:57.168Z,8.13
2022-10-17T01:14:50.417Z,7.13
2022-10-17T01:17:28.702Z,6.40
2022-10-17T01:20:15.340Z,5.63
2022-10-17T01:22:56.544Z,8.60
2022-10-17T01:25:28.886Z,10.57
2022-10-17T01:28:09.333Z,6.80
2022-10-17T01:30:57.584Z,10.70
2022-10-17T01:33:42.275Z,5.97
2022-10-17T01:36:13.324Z,5.77
2022-10-17T01:39:03.125Z,6.10
2022-10-17T01:41:40.455Z,4.67
2022-10-17T01:44:17.770Z,6.90
2022-10-17T01:46:48.845Z,6.20
2022-10-17T01:49:16.404Z,5.67
2022-10-17T01:51:56.724Z,6.57
2022-10-17T01:54:47.554Z,6.67
2022-10-17T01:57:21.116Z,5.90
2022-10-17T01:59:51.696Z,7.40
2022-10-17T02:02:19.134Z,6.13
2022-10-17T02:04:46.966Z,6.03
2022-10-17T02:07:13.427Z,5.43
2022-10-17T02:09:40.111Z,8.27
2022-10-17T02:12:56.179Z,5.57
2022-10-17T02:15:39.654Z,8.20
2022-10-17T02:18:41.568Z,4.33
2022-10-17T02:21:31.028Z,6.07
2022-10-17T02:24:21.110Z,7.73
2022-10-17T02:26:54.541Z,6.00
2022-10-17T02:29:23.929Z,6.80
2022-10-17T02:31:56.811Z,7.10
2022-10-17T02:34:29.287Z,7.10
2022-10-17T02:37:00.782Z,6.27
2022-10-17T02:39:28.557Z,6.40
2022-10-17T02:41:56.930Z,5.13
2022-10-17T02:44:24.021Z,7.10
2022-10-17T02:46:56.701Z,9.70
2022-10-17T02:49:27.759Z,5.80
2022-10-17T02:51:58.223Z,7.37
2022-10-17T02:54:32.081Z,5.73
2022-10-17T02:57:02.905Z,7.63
2022-10-17T02:59:30.632Z,9.33
2022-10-17T03:01:57.113Z,6.50
2022-10-17T03:04:23.492Z,6.23
2022-10-17T03:06:50.128Z,5.50
2022-10-17T03:09:16.574Z,5.60
2022-10-17T03:11:43.095Z,5.50
2022-10-17T03:14:09.675Z,6.20
2022-10-17T03:16:37.404Z,7.67
2022-10-17T03:19:04.031Z,5.80
2022-10-17T03:21:30.517Z,7.57
2022-10-17T03:23:57.139Z,9.03
2022-10-17T03:26:23.543Z,7.57
2022-10-17T03:28:53.486Z,10.27
2022-10-17T03:31:21.726Z,11.20
2022-10-17T03:33:48.110Z,5.27
2022-10-17T03:36:16.113Z,6.60
2022-10-17T03:38:43.107Z,10.10
2022-10-17T03:41:09.738Z,8.70
2022-10-17T03:43:36.230Z,10.10
2022-10-17T03:46:03.331Z,16.73
2022-10-17T03:48:30.853Z,12.53
2022-10-17T03:51:02.176Z,7.57
2022-10-17T03:53:29.307Z,8.73
2022-10-17T03:55:56.929Z,11.63
2022-10-17T03:58:23.388Z,13.93
2022-10-17T04:00:49.845Z,12.80
2022-10-17T04:03:17.399Z,10.83
2022-10-17T04:05:43.949Z,10.33
2022-10-17T04:08:10.376Z,9.73
2022-10-17T04:10:36.822Z,10.17
2022-10-17T04:13:03.324Z,11.33
2022-10-17T04:15:29.704Z,8.60
2022-10-17T04:17:56.161Z,12.27
2022-10-17T04:20:22.693Z,11.50
2022-10-17T04:22:49.078Z,10.73
2022-10-17T04:25:15.491Z,11.10
2022-10-17T04:27:41.972Z,16.37
2022-10-17T04:30:08.580Z,9.90
2022-10-17T04:32:41.388Z,10.87
2022-10-17T04:35:08.304Z,9.97
2022-10-17T04:37:34.735Z,12.33
2022-10-17T04:40:01.135Z,9.50
2022-10-17T04:42:29.357Z,13.60
2022-10-17T04:44:55.943Z,13.20
2022-10-17T04:47:22.369Z,10.23
2022-10-17T04:49:48.779Z,10.80
2022-10-17T04:52:15.193Z,12.40
2022-10-17T04:54:41.620Z,12.60
2022-10-17T04:57:08.101Z,11.83
2022-10-17T04:59:34.598Z,11.27
2022-10-17T05:02:01.063Z,9.87
2022-10-17T05:04:27.518Z,14.20
2022-10-17T05:06:53.972Z,8.53
2022-10-17T05:09:20.370Z,10.83
2022-10-17T05:11:47.472Z,12.37
2022-10-17T05:14:13.900Z,12.07
2022-10-17T05:16:40.340Z,12.93
2022-10-17T05:19:06.777Z,12.33
2022-10-17T05:24:09.330Z,13.70
2022-10-17T05:26:35.837Z,14.00
2022-10-17T05:29:03.075Z,15.60
2022-10-17T05:31:30.423Z,10.77
2022-10-17T05:34:00.423Z,14.03
2022-10-17T05:36:26.902Z,12.57
2022-10-17T05:38:53.348Z,11.63
2022-10-17T05:41:20.386Z,13.50
2022-10-17T05:43:47.074Z,13.83
2022-10-17T05:46:13.524Z,11.23
2022-10-17T05:48:40.046Z,14.87
2022-10-17T05:51:08.827Z,10.80
2022-10-17T05:53:37.543Z,12.17
2022-10-17T05:56:07.040Z,11.67
2022-10-17T05:58:51.804Z,17.87
2022-10-17T06:01:20.254Z,12.33
2022-10-17T06:03:46.713Z,11.67
2022-10-17T06:06:14.663Z,13.90
2022-10-17T06:08:41.495Z,12.50
2022-10-17T06:11:10.157Z,13.57
2022-10-17T06:13:38.193Z,11.00
2022-10-17T06:16:05.100Z,11.27
2022-10-17T06:18:31.769Z,12.17
2022-10-17T06:21:09.653Z,15.47
2022-10-17T06:23:36.106Z,11.20
2022-10-17T06:26:04.564Z,13.70
2022-10-17T06:28:31.708Z,10.40
2022-10-17T06:30:58.185Z,13.80
2022-10-17T06:33:24.915Z,13.33
2022-10-17T06:35:55.396Z,9.73
2022-10-17T06:38:22.047Z,8.80
2022-10-17T06:40:48.620Z,16.23
2022-10-17T06:43:15.088Z,11.87
2022-10-17T06:45:42.197Z,14.10
2022-10-17T06:48:09.059Z,11.20
2022-10-17T06:50:35.574Z,8.80
2022-10-17T06:53:02.229Z,11.97
2022-10-17T06:55:28.876Z,9.73
2022-10-17T06:57:56.273Z,9.17
2022-10-17T07:00:23.468Z,11.20
2022-10-17T07:02:49.940Z,13.93
2022-10-17T07:05:16.471Z,8.97
2022-10-17T07:07:44.778Z,9.93
2022-10-17T07:10:12.775Z,7.37
2022-10-17T07:12:39.539Z,9.97
2022-10-17T07:15:06.656Z,8.33
2022-10-17T07:17:33.087Z,10.20
2022-10-17T07:19:59.521Z,12.67
2022-10-17T07:22:25.999Z,7.27
2022-10-17T07:24:52.629Z,10.70
2022-10-17T07:27:19.301Z,10.07
2022-10-17T07:29:45.727Z,12.40
2022-10-17T07:32:12.205Z,7.83
2022-10-17T07:34:38.652Z,7.57
2022-10-17T07:37:06.941Z,8.07
2022-10-17T07:39:35.570Z,11.77
2022-10-17T07:42:02.085Z,8.43
2022-10-17T07:44:28.630Z,10.47
2022-10-17T07:46:55.161Z,5.63
2022-10-17T07:49:21.628Z,8.07
2022-10-17T07:51:48.724Z,6.30
2022-10-17T07:54:15.157Z,11.13
2022-10-17T07:56:41.614Z,7.47
2022-10-17T07:59:09.598Z,8.40
2022-10-17T08:01:36.899Z,6.63
2022-10-17T08:04:03.399Z,7.77
2022-10-17T08:06:29.821Z,6.37
2022-10-17T08:08:57.943Z,7.53
2022-10-17T08:11:25.631Z,6.67
2022-10-17T08:13:52.041Z,10.40
2022-10-17T08:16:18.626Z,7.33
2022-10-17T08:18:45.151Z,7.30
2022-10-17T08:21:13.197Z,16.50
2022-10-17T08:23:40.095Z,8.20
2022-10-17T08:26:13.192Z,9.20
2022-10-17T08:28:40.387Z,6.13
2022-10-17T08:31:11.207Z,7.00
2022-10-17T08:33:38.040Z,5.87
2022-10-17T08:36:05.727Z,9.87
2022-10-17T08:38:35.594Z,6.77
2022-10-17T08:41:11.954Z,6.70
2022-10-17T08:44:06.619Z,6.43
2022-10-17T08:46:36.897Z,7.10
2022-10-17T08:49:06.473Z,6.93
2022-10-17T08:51:34.932Z,9.30
2022-10-17T08:54:10.114Z,7.80
2022-10-17T08:56:48.824Z,8.37
2022-10-17T08:59:26.838Z,7.53
2022-10-17T09:02:24.400Z,10.13
2022-10-17T09:05:09.655Z,7.23
2022-10-17T09:07:52.379Z,6.03
2022-10-17T09:10:42.015Z,6.90
2022-10-17T09:13:26.959Z,5.80
2022-10-17T09:16:01.128Z,6.90
2022-10-17T09:18:31.437Z,11.20
2022-10-17T09:21:04.871Z,7.97
2022-10-17T09:23:44.941Z,6.53
2022-10-17T09:26:11.922Z,5.33
2022-10-17T09:28:41.480Z,8.37
2022-10-17T09:31:20.824Z,7.67
2022-10-17T09:33:54.167Z,7.77
2022-10-17T09:36:33.087Z,8.20
2022-10-17T09:39:09.434Z,5.43
2022-10-17T09:44:31.825Z,6.90
2022-10-17T09:47:23.651Z,6.30
2022-10-17T09:49:50.692Z,6.93
2022-10-17T09:52:39.591Z,7.63
2022-10-17T09:55:16.386Z,6.30
2022-10-17T09:58:03.705Z,6.93
2022-10-17T10:00:48.987Z,10.03
2022-10-17T10:03:23.226Z,6.90
2022-10-17T10:06:03.098Z,10.20
2022-10-17T10:08:35.724Z,8.97
2022-10-17T10:11:05.864Z,6.17
2022-10-17T10:13:34.087Z,13.43
2022-10-17T10:16:32.943Z,8.90
2022-10-17T10:18:59.627Z,7.53
2022-10-17T10:21:27.509Z,9.63
2022-10-17T10:24:06.137Z,6.10
2022-10-17T10:26:39.026Z,6.40
2022-10-17T10:29:18.914Z,5.93
2022-10-17T10:31:45.587Z,7.37
2022-10-17T10:34:22.545Z,7.43
2022-10-17T10:36:57.122Z,8.40
2022-10-17T10:39:36.092Z,6.33
2022-10-17T10:42:06.179Z,6.17
2022-10-17T10:44:35.759Z,9.73
2022-10-17T10:47:17.507Z,6.53
2022-10-17T10:49:44.868Z,6.40
2022-10-17T10:52:38.275Z,6.90
2022-10-17T10:55:20.051Z,7.33
2022-10-17T10:57:47.567Z,5.87
2022-10-17T11:00:21.515Z,9.27
2022-10-17T11:03:12.730Z,8.77
2022-10-17T11:05:42.423Z,9.80
2022-10-17T11:08:33.649Z,8.60
2022-10-17T11:11:27.759Z,5.77
2022-10-17T11:14:01.771Z,8.27
2022-10-17T11:16:33.172Z,11.00
2022-10-17T11:19:21.367Z,9.33
2022-10-17T11:21:49.007Z,14.30
2022-10-17T11:24:24.938Z,7.33
2022-10-17T11:26:57.307Z,8.73
2022-10-17T11:29:28.920Z,12.50
2022-10-17T11:31:57.332Z,10.47
2022-10-17T11:34:31.660Z,9.93
2022-10-17T11:37:02.875Z,6.87
2022-10-17T11:39:36.536Z,9.83
2022-10-17T11:42:07.187Z,8.63
2022-10-17T11:44:38.467Z,10.83
2022-10-17T11:47:20.350Z,9.47
2022-10-17T11:52:58.546Z,11.60
2022-10-17T11:55:27.453Z,8.40
2022-10-17T12:01:15.486Z,12.70
2022-10-17T12:03:49.606Z,12.27
2022-10-17T12:06:47.028Z,12.47
2022-10-17T12:09:35.301Z,18.33
2022-10-17T12:12:02.970Z,19.30
2022-10-17T12:14:37.332Z,10.67
2022-10-17T12:17:06.019Z,14.93
2022-10-17T12:19:37.679Z,15.93
2022-10-17T12:22:19.517Z,17.07
2022-10-17T12:25:02.912Z,16.47
2022-10-17T12:27:45.785Z,13.63
2022-10-17T12:30:12.313Z,17.80
2022-10-17T12:33:06.692Z,18.80
2022-10-17T12:35:35.618Z,18.53
2022-10-17T12:38:23.916Z,15.07
2022-10-17T12:40:55.421Z,15.03
2022-10-17T12:43:27.930Z,13.17
2022-10-17T12:45:57.946Z,15.60
2022-10-17T12:48:36.614Z,18.93
2022-10-17T12:54:17.133Z,18.13
2022-10-17T12:56:46.568Z,12.57
2022-10-17T12:59:34.418Z,13.27
2022-10-17T13:02:03.468Z,18.17
2022-10-17T13:04:30.741Z,10.73
2022-10-17T13:06:58.876Z,18.67
2022-10-17T13:09:30.838Z,15.70
2022-10-17T13:12:04.840Z,18.47
2022-10-17T13:14:32.354Z,16.87
2022-10-17T13:17:07.312Z,19.80
2022-10-17T13:19:45.682Z,21.20
2022-10-17T13:22:19.505Z,16.97
2022-10-17T13:24:46.622Z,18.23
2022-10-17T13:27:31.105Z,19.37
2022-10-17T13:30:03.389Z,20.70
2022-10-17T13:32:38.281Z,20.13
2022-10-17T13:35:06.847Z,19.20
2022-10-17T13:37:34.537Z,25.60
2022-10-17T13:40:11.333Z,23.77
2022-10-17T13:42:44.595Z,21.90
2022-10-17T13:45:18.375Z,22.03
2022-10-17T13:47:44.987Z,19.93
2022-10-17T13:50:44.056Z,20.03
2022-10-17T13:53:21.217Z,21.77
2022-10-17T13:56:26.498Z,25.63
2022-10-17T13:58:57.320Z,23.13
2022-10-17T14:01:25.813Z,21.77
2022-10-17T14:04:07.226Z,21.50
2022-10-17T14:06:43.951Z,17.40
2022-10-17T14:09:31.227Z,19.67
2022-10-17T14:12:08.548Z,18.23
2022-10-17T14:14:52.001Z,21.30
2022-10-17T14:17:26.668Z,17.17
2022-10-17T14:20:16.077Z,18.10
2022-10-17T14:22:47.049Z,17.87
2022-10-17T14:25:32.529Z,16.87
2022-10-17T14:28:14.842Z,17.30
2022-10-17T14:31:01.909Z,17.97
2022-10-17T14:33:31.442Z,15.93
2022-10-17T14:35:59.880Z,19.93
2022-10-17T14:38:28.631Z,19.47
2022-10-17T14:41:22.107Z,11.97
2022-10-17T14:43:53.487Z,19.53
2022-10-17T14:46:20.283Z,20.00
2022-10-17T14:48:52.583Z,12.07
2022-10-17T14:51:19.118Z,14.77
2022-10-17T14:54:19.882Z,12.90
2022-10-17T14:56:51.802Z,15.00
2022-10-17T14:59:42.010Z,13.30
2022-10-17T15:02:09.603Z,11.67
2022-10-17T15:04:36.087Z,13.33
2022-10-17T15:07:02.492Z,12.40
2022-10-17T15:09:29.049Z,13.33
2022-10-17T15:11:56.128Z,14.13
2022-10-17T15:14:22.574Z,17.50
2022-10-17T15:16:49.134Z,13.30
2022-10-17T15:19:15.680Z,15.83
2022-10-17T15:21:46.248Z,12.17
2022-10-17T15:24:14.987Z,12.30
2022-10-17T15:26:41.502Z,17.23
2022-10-17T15:29:15.351Z,13.93
2022-10-17T15:31:41.894Z,17.07
2022-10-17T15:34:08.456Z,10.97
2022-10-17T15:36:40.016Z,13.73
2022-10-17T15:39:06.461Z,25.90
2022-10-17T15:41:33.495Z,12.50
2022-10-17T15:44:00.211Z,14.70
2022-10-17T15:46:32.051Z,15.67
2022-10-17T15:49:02.770Z,10.83
2022-10-17T15:51:29.153Z,25.23
2022-10-17T15:53:55.717Z,22.27
2022-10-17T15:56:36.200Z,13.97
2022-10-17T15:59:10.663Z,22.63
2022-10-17T16:01:37.082Z,15.67
2022-10-17T16:04:03.540Z,20.93
2022-10-17T16:06:30.378Z,20.63
2022-10-17T16:08:56.825Z,15.63
2022-10-17T16:11:36.469Z,14.30
2022-10-17T16:14:07.858Z,14.93
2022-10-17T16:16:34.271Z,22.20
2022-10-17T16:19:01.404Z,15.73
2022-10-17T16:23:57.923Z,14.37
2022-10-17T16:26:24.475Z,17.70
2022-10-17T16:28:50.957Z,21.23
2022-10-17T16:31:23.567Z,19.23
2022-10-17T16:33:52.730Z,16.33
2022-10-17T16:36:19.767Z,24.33
2022-10-17T16:38:46.834Z,16.20
2022-10-17T16:41:23.398Z,16.40
2022-10-17T16:43:50.591Z,22.70
2022-10-17T16:46:17.371Z,21.10
2022-10-17T16:48:45.017Z,24.83
2022-10-17T16:51:12.512Z,15.67
2022-10-17T16:53:44.818Z,15.10
2022-10-17T16:56:14.340Z,21.53
2022-10-17T16:58:41.842Z,17.33
2022-10-17T17:01:16.805Z,20.53
2022-10-17T17:03:45.090Z,33.50
2022-10-17T17:06:13.727Z,29.13
2022-10-17T17:08:40.190Z,29.13
2022-10-17T17:11:07.593Z,24.87
2022-10-17T17:13:34.742Z,25.77
2022-10-17T17:16:12.757Z,23.33
2022-10-17T17:18:39.909Z,31.37
2022-10-17T17:21:07.558Z,22.63
2022-10-17T17:23:35.954Z,26.03
2022-10-17T17:26:08.531Z,21.50
2022-10-17T17:28:35.427Z,21.87
2022-10-17T17:31:02.055Z,21.40
2022-10-17T17:33:30.022Z,22.93
2022-10-17T17:35:58.429Z,23.43
2022-10-17T17:38:24.862Z,16.87
2022-10-17T17:40:51.418Z,11.87
2022-10-17T17:43:18.517Z,16.17
2022-10-17T17:45:45.580Z,14.80
2022-10-17T17:48:12.399Z,12.80
2022-10-17T17:50:40.096Z,8.27
2022-10-17T17:53:07.465Z,8.70
2022-10-17T17:55:34.230Z,6.60
2022-10-17T17:58:00.785Z,11.07
2022-10-17T18:00:27.691Z,35.00
2022-10-17T18:02:54.237Z,18.13
2022-10-17T18:05:20.703Z,24.23
2022-10-17T18:07:47.379Z,12.67
2022-10-17T18:12:42.037Z,8.30
2022-10-17T18:15:08.918Z,7.00
2022-10-17T18:17:35.345Z,4.10
2022-10-17T18:20:02.737Z,6.10
2022-10-17T18:22:29.603Z,4.83
2022-10-17T18:24:56.383Z,5.23
2022-10-17T18:27:22.967Z,4.07
2022-10-17T18:29:50.582Z,7.40
2022-10-17T18:32:17.308Z,7.93
2022-10-17T18:34:43.701Z,9.10
2022-10-17T18:37:10.224Z,8.17
2022-10-17T18:39:36.728Z,6.53
2022-10-17T18:42:03.194Z,6.27
2022-10-17T18:44:29.656Z,5.87
2022-10-17T18:46:58.559Z,12.17
2022-10-17T18:49:27.985Z,7.63
2022-10-17T18:51:54.799Z,10.87
2022-10-17T18:54:22.081Z,8.33
2022-10-17T18:56:53.309Z,13.13
2022-10-17T18:59:20.544Z,5.70
2022-10-17T19:01:47.515Z,9.53
2022-10-17T19:04:14.572Z,5.13
2022-10-17T19:06:41.532Z,7.30
2022-10-17T19:09:10.667Z,6.70
2022-10-17T19:11:38.201Z,14.00
2022-10-17T19:14:12.660Z,7.47
2022-10-17T19:16:44.873Z,6.43
2022-10-17T19:19:14.380Z,7.43
2022-10-17T19:21:41.189Z,7.53
2022-10-17T19:24:11.641Z,8.63
2022-10-17T19:26:39.687Z,6.63
2022-10-17T19:29:07.311Z,7.57
2022-10-17T19:31:35.055Z,5.53
2022-10-17T19:34:01.548Z,12.50
2022-10-17T19:36:33.183Z,10.07
2022-10-17T19:39:01.900Z,8.23
2022-10-17T19:41:28.590Z,12.50
2022-10-17T19:43:55.298Z,11.57
2022-10-17T19:46:23.369Z,11.80
2022-10-17T19:48:50.496Z,11.20
2022-10-17T19:51:19.008Z,9.80
2022-10-17T19:53:45.997Z,9.90
2022-10-17T19:56:13.419Z,8.67
2022-10-17T19:58:46.526Z,9.93
2022-10-17T20:01:15.439Z,8.87
2022-10-17T20:03:42.298Z,6.63
2022-10-17T20:06:09.145Z,8.87
2022-10-17T20:08:36.074Z,9.53
2022-10-17T20:11:07.778Z,9.17
2022-10-17T20:13:35.645Z,8.83
2022-10-17T20:16:02.204Z,9.87
2022-10-17T20:18:28.814Z,5.83
2022-10-17T20:20:55.567Z,8.07
2022-10-17T20:23:22.547Z,10.27
2022-10-17T20:26:13.327Z,7.20
2022-10-17T20:28:45.702Z,11.07
2022-10-17T20:31:12.511Z,6.93
2022-10-17T20:33:38.919Z,9.50
2022-10-17T20:36:06.197Z,7.70
2022-10-17T20:38:32.827Z,11.37
2022-10-17T20:41:08.087Z,5.77
2022-10-17T20:43:34.992Z,10.10
2022-10-17T20:46:09.724Z,8.53
2022-10-17T20:48:42.229Z,7.87
2022-10-17T20:51:10.086Z,9.20
2022-10-17T20:53:37.682Z,7.23
2022-10-17T20:56:17.714Z,13.30
2022-10-17T20:58:44.127Z,7.50
2022-10-17T21:01:10.942Z,10.40
2022-10-17T21:03:41.076Z,6.90
2022-10-17T21:06:10.942Z,7.87
2022-10-17T21:08:37.652Z,11.13
2022-10-17T21:11:30.554Z,13.17
2022-10-17T21:14:03.091Z,7.83
2022-10-17T21:16:31.169Z,11.60
2022-10-17T21:18:58.011Z,12.93
2022-10-17T21:21:26.970Z,9.60
2022-10-17T21:23:57.004Z,11.93
2022-10-17T21:26:23.749Z,13.87
2022-10-17T21:28:50.634Z,15.33
2022-10-17T21:31:25.153Z,11.60
2022-10-17T21:33:54.697Z,12.10
2022-10-17T21:36:21.796Z,12.70
2022-10-17T21:38:49.297Z,16.73
2022-10-17T21:41:17.555Z,13.57
2022-10-17T21:43:43.956Z,14.00
2022-10-17T21:46:13.672Z,18.13
2022-10-17T21:48:40.281Z,14.77
2022-10-17T21:51:09.731Z,19.17
2022-10-17T21:53:36.517Z,15.97
2022-10-17T21:56:05.195Z,17.70
2022-10-17T21:58:32.493Z,23.17
2022-10-17T22:01:15.652Z,18.27
2022-10-17T22:03:46.632Z,17.97
2022-10-17T22:06:38.863Z,21.10
2022-10-17T22:09:07.143Z,21.30
2022-10-17T22:11:35.062Z,19.00
2022-10-17T22:14:06.974Z,20.63
2022-10-17T22:16:33.960Z,19.70
2022-10-17T22:19:05.900Z,19.20
2022-10-17T22:21:34.655Z,21.40
2022-10-17T22:24:03.828Z,22.17
2022-10-17T22:26:31.654Z,23.23
2022-10-17T22:28:58.331Z,21.47
2022-10-17T22:31:25.170Z,21.30
2022-10-17T22:33:51.732Z,25.73
2022-10-17T22:36:18.405Z,31.07
2022-10-17T22:38:44.881Z,24.37
2022-10-17T22:41:11.332Z,27.87
2022-10-17T22:43:37.861Z,32.37
2022-10-17T22:46:05.717Z,23.77
2022-10-17T22:48:32.287Z,36.13
2022-10-17T22:50:59.485Z,30.53
2022-10-17T22:53:26.946Z,36.83
2022-10-17T22:55:54.470Z,46.47
2022-10-17T22:58:21.509Z,36.33
2022-10-17T23:00:49.228Z,34.00
2022-10-17T23:03:16.367Z,38.77
2022-10-17T23:05:43.159Z,34.37
2022-10-17T23:08:09.676Z,38.03
2022-10-17T23:10:36.139Z,38.67
2022-10-17T23:13:03.234Z,44.63
2022-10-17T23:15:31.626Z,41.03
2022-10-17T23:17:58.499Z,40.20
2022-10-17T23:20:25.008Z,45.67
2022-10-17T23:22:51.520Z,42.57
2022-10-17T23:25:17.923Z,42.73
2022-10-17T23:27:44.410Z,44.47
2022-10-17T23:30:11.793Z,38.63
2022-10-17T23:32:39.336Z,37.83
2022-10-17T23:35:06.458Z,43.53
2022-10-17T23:37:33.633Z,39.20
2022-10-17T23:40:00.356Z,44.53
2022-10-17T23:42:27.118Z,37.83
2022-10-17T23:44:53.646Z,40.50
2022-10-17T23:47:20.057Z,40.70
2022-10-17T23:49:46.566Z,47.07
2022-10-17T23:52:12.976Z,46.63
2022-10-17T23:54:39.377Z,46.60
2022-10-17T23:57:05.780Z,47.70
2022-10-17T23:59:32.180Z,47.90
